Terminal Aerodrome Forecast
Issued by NWS

Home | Current Version | Previous Version | Text Only | Print | Product List | Glossary On
Versions: 1 2 3 4 5 6 7 8 9 10 11 12 13 14 15 16 17 18 19
061
FTUS43 KAPX 180056 AAA
TAFMBL
TAF AMD
KMBL 180056Z 1801/1824 13003KT P6SM OVC008
     FM180300 00000KT 4SM BR OVC007
     FM181300 00000KT 6SM BR OVC010
     FM181600 24005KT P6SM OVC015=

USA.gov is the U.S. government's official web portal to all federal, state and local government web resources and services.